• Join FlightAware (Why Join?)
  • Login
  • US Flag 
 
07:16PM EST


 

Airport Tracker/Info


-or-


 

Live Flight TrackerFlight Track Log ✈ EJA951 ✈ 15-Mar-2014 ✈ KHPN - KEGE

Flight Track Log - Related Links

Times and Time Zones

All times are in EDT time to prevent confusion due to time zone crossing. See the EJA951 flight status page for this flight to view local times or setup timezone preferences in your user account.

Time Position Orientation Groundspeed Altitude Reporting Facility
EDT Latitude Longitude Course Direction KTS MPH feet Rate Location/Type
08:16AM 41.1000 -73.7500 270° West 170 196 2,900  Level New York TRACON
08:17AM 41.1167 -73.8167 288° West 174 200 4,400 1,260 Climbing New York TRACON
08:18AM 41.1167 -73.8833 270° West 219 252 5,400 2,040 Climbing New York TRACON
08:19AM 41.0833 -73.9500 236° Southwest 232 267 8,300 2,580 Climbing New York TRACON
08:20AM 41.0333 -74.0167 225° Southwest 255 293 10,600 1,740 Climbing New York TRACON
08:21AM 40.9833 -74.1167 237° Southwest 291 335 11,800 1,320 Climbing New York TRACON
08:22AM 40.9667 -74.6487 270° West  Level FlightAware Approximate
08:22AM 40.9333 -74.2000 232° Southwest 314 361 13,300  Level New York TRACON
08:23AM 40.9333 -74.3167 270° West 319 367 14,500 900 Climbing New York TRACON
08:24AM 40.9350 -74.4050 271° West 317 365 15,000 420 Climbing New York Center
08:25AM 40.9356 -74.5203 270° West 327 376 15,300 660 Climbing New York Center
08:26AM 40.9317 -74.6328 267° West 321 369 16,400 840 Climbing New York Center
08:27AM 40.9278 -74.7506 268° West 314 361 17,000 300 Climbing New York Center
08:28AM 40.9239 -74.8658 267° West 314 361 17,000 900 Level New York Center
08:29AM 40.9067 -74.9992 260° West 326 375 18,900 1,740 Climbing New York Center
08:30AM 40.8864 -75.1022 255° West 331 381 20,600 1,860 Climbing New York Center
08:31AM 40.8650 -75.2272 257° West 336 387 22,700 2,160 Climbing New York Center
08:32AM 40.8725 -75.3594 274° West 336 387 25,000 2,160 Climbing New York Center
08:33AM 40.8842 -75.4864 277° West 336 387 27,000 2,100 Climbing New York Center
08:34AM 40.8958 -75.6108 277° West 349 402 29,300 2,340 Climbing New York Center
08:35AM 40.9075 -75.7325 277° West 349 402 31,800 1,860 Climbing New York Center
08:36AM 40.9189 -75.8567 277° West 349 402 33,100 1,200 Climbing New York Center
08:37AM 40.9317 -75.9922 277° West 356 410 34,300 1,200 Climbing New York Center
08:38AM 40.9422 -76.1278 276° West 364 419 35,500 1,080 Climbing New York Center
08:39AM 40.9567 -76.2692 278° West 380 437 36,500 900 Climbing New York Center
08:40AM 40.9686 -76.4103 276° West 386 444 37,400 720 Climbing New York Center
08:41AM 40.9822 -76.5597 277° West 397 457 38,000 240 Climbing New York Center
08:42AM 40.9956 -76.7122 277° West 409 471 38,000  Level New York Center
08:43AM 41.0083 -76.8700 276° West 425 489 38,000 240 Level New York Center
08:44AM 41.0208 -77.0308 276° West 438 504 38,500 660 Climbing New York Center
08:45AM 41.0333 -77.1858 276° West 438 504 39,400 660 Climbing New York Center
08:46AM 41.0447 -77.3247 276° West 433 498 39,900 600 Climbing New York Center
08:47AM 41.0569 -77.4744 276° West 423 487 40,600 600 Climbing New York Center
08:49AM 41.0747 -77.7069 276° West 417 480 41,500 540 Climbing Cleveland Center
08:50AM 41.0853 -77.8553 275° West 410 472 42,000 480 Climbing Cleveland Center
08:51AM 41.0981 -78.0314 276° West 407 468 42,600 480 Climbing Cleveland Center
08:52AM 41.1089 -78.1764 276° West 401 461 43,000 180 Climbing Cleveland Center
08:53AM 41.1175 -78.3069 275° West 400 460 43,000  Level Cleveland Center
08:54AM 41.1261 -78.4558 274° West 402 463 43,000  Level Cleveland Center
08:55AM 41.1411 -78.6372 276° West 409 471 43,000  Level Cleveland Center
08:56AM 41.1514 -78.7894 275° West 413 475 43,000  Level Cleveland Center
08:57AM 41.1600 -78.9394 274° West 413 475 43,000  Level Cleveland Center
08:58AM 41.1697 -79.0917 275° West 412 474 43,000  Level Cleveland Center
08:59AM 41.1800 -79.2461 275° West 421 484 43,000  Level Cleveland Center
09:00AM 41.1894 -79.4069 275° West 433 498 43,000  Level Cleveland Center
09:01AM 41.1983 -79.5622 274° West 432 497 43,000  Level Cleveland Center
09:02AM 41.2089 -79.7478 274° West 427 491 43,000  Level Cleveland Center
09:03AM 41.2186 -79.9056 275° West 428 493 43,000  Level Cleveland Center
09:04AM 41.2278 -80.0653 274° West 430 495 43,000  Level Cleveland Center
09:05AM 41.2361 -80.2233 274° West 431 496 43,000  Level Cleveland Center
09:06AM 41.2436 -80.3850 274° West 430 495 43,000  Level Cleveland Center
09:07AM 41.2522 -80.5447 274° West 430 495 43,000  Level Cleveland Center
09:08AM 41.2600 -80.7067 274° West 433 498 43,000  Level Cleveland Center
09:09AM 41.2678 -80.8689 274° West 434 499 43,000  Level Cleveland Center
09:10AM 41.2764 -81.0572 274° West 435 501 43,000  Level Cleveland Center
09:11AM 41.2839 -81.2197 274° West 435 501 43,000  Level Cleveland Center
09:12AM 41.2914 -81.3831 274° West 436 502 43,000  Level Cleveland Center
09:13AM 41.2975 -81.5314 273° West 440 506 43,000  Level Cleveland Center
09:14AM 41.3044 -81.6906 273° West 438 504 43,000  Level Cleveland Center
09:15AM 41.3117 -81.8839 273° West 438 504 43,000  Level Cleveland Center
09:16AM 41.3181 -82.0442 273° West 438 504 43,000  Level Cleveland Center
09:17AM 41.3239 -82.2097 273° West 438 504 43,000  Level Cleveland Center
09:18AM 41.3300 -82.3739 273° West 438 504 43,000  Level Cleveland Center
09:20AM 41.3353 -82.5369 273° West 438 504 43,000  Level Cleveland Center
09:21AM 41.3403 -82.6992 272° West 438 504 43,000  Level Cleveland Center
09:22AM 41.3450 -82.8617 272° West 438 504 43,000  Level Cleveland Center
09:23AM 41.3500 -83.0250 272° West 438 504 43,000  Level Cleveland Center
09:24AM 41.3544 -83.1856 272° West 438 504 43,000  Level Cleveland Center
09:25AM 41.3589 -83.3472 272° West 437 503 43,000  Level Cleveland Center
09:27AM 41.3681 -83.7031 272° West 437 503 43,000  Level Cleveland Center
09:28AM 41.3711 -83.8644 271° West 437 503 43,000  Level Cleveland Center
09:29AM 41.3739 -84.0267 271° West 437 503 43,000  Level Cleveland Center
09:30AM 41.3792 -84.2203 272° West 437 503 43,000  Level Chicago Center
09:31AM 41.3814 -84.3811 271° West 437 503 43,000  Level Chicago Center
09:32AM 41.3839 -84.5417 271° West 435 501 43,000  Level Chicago Center
09:33AM 41.3869 -84.7019 272° West 434 499 43,000  Level Chicago Center
09:34AM 41.3883 -84.8633 271° West 436 502 43,000  Level Chicago Center
09:35AM 41.3903 -85.0222 271° West 431 496 43,000  Level Chicago Center
09:36AM 41.3919 -85.1850 271° West 435 501 43,000  Level Chicago Center
09:37AM 41.3939 -85.3794 271° West 434 499 43,000  Level Chicago Center
09:38AM 41.3953 -85.5417 271° West 433 498 43,000  Level Chicago Center
09:39AM 41.3956 -85.7036 270° West 432 497 43,000  Level Chicago Center
09:40AM 41.3964 -85.8658 270° West 435 501 43,000  Level Chicago Center
09:41AM 41.3964 -86.0286 270° West 439 505 43,000  Level Chicago Center
09:42AM 41.3978 -86.1906 271° West 437 503 43,000  Level Chicago Center
09:43AM 41.3969 -86.3525 270° West 437 503 43,000  Level Chicago Center
09:44AM 41.3975 -86.5164 270° West 441 507 43,000  Level Chicago Center
09:45AM 41.3961 -86.6806 269° West 442 509 43,000  Level Chicago Center
09:46AM 41.3958 -86.8661 270° West 444 511 43,000  Level Chicago Center
09:47AM 41.3956 -87.0308 270° West 446 513 43,000  Level Chicago Center
09:48AM 41.3944 -87.1944 270° West 446 513 43,000  Level Chicago Center
09:49AM 41.3928 -87.3603 269° West 447 514 43,000  Level Chicago Center
09:50AM 41.3908 -87.5597 269° West 450 518 43,000  Level Chicago Center
09:52AM 41.3894 -87.7258 269° West 449 517 43,000  Level Chicago Center
09:53AM 41.3875 -87.8922 269° West 449 517 43,000  Level Chicago Center
09:54AM 41.3847 -88.0489 269° West 452 520 43,000  Level Chicago Center
09:55AM 41.3822 -88.2383 269° West 450 518 43,000  Level Chicago Center
09:56AM 41.3792 -88.4033 269° West 446 513 43,000  Level Chicago Center
09:57AM 41.3764 -88.5694 269° West 448 516 43,000  Level Chicago Center
09:58AM 41.3728 -88.7339 268° West 446 513 43,000  Level Chicago Center
09:59AM 41.3694 -88.8997 269° West 447 514 43,000  Level Chicago Center
10:00AM 41.3656 -89.0650 268° West 448 516 43,000  Level Chicago Center
10:01AM 41.3611 -89.2408 268° West 453 521 43,000  Level Chicago Center
10:02AM 41.3572 -89.4047 268° West 444 511 43,000  Level Chicago Center
10:03AM 41.3517 -89.6039 268° West 449 517 43,000  Level Chicago Center
10:04AM 41.3467 -89.7694 268° West 449 517 43,000  Level Chicago Center
10:05AM 41.3422 -89.9353 268° West 450 518 43,000  Level Chicago Center
10:06AM 41.3375 -90.1003 268° West 449 517 43,000  Level Chicago Center
10:07AM 41.3325 -90.2658 268° West 450 518 43,000  Level Chicago Center
10:08AM 41.3278 -90.4311 268° West 450 518 43,000  Level Chicago Center
10:09AM 41.3217 -90.5969 267° West 450 518 43,000  Level Chicago Center
10:10AM 41.3117 -90.8008 266° West 456 525 43,000  Level Chicago Center
10:11AM 41.3044 -90.9669 267° West 451 519 43,000  Level Chicago Center
10:12AM 41.2975 -91.1331 267° West 453 521 43,000  Level Chicago Center
10:13AM 41.2919 -91.2978 267° West 447 514 43,000  Level Chicago Center
10:14AM 41.2844 -91.4658 267° West 449 517 43,000  Level Chicago Center
10:15AM 41.2772 -91.6303 267° West 448 516 43,000  Level Chicago Center
10:16AM 41.2692 -91.7956 266° West 450 518 43,000  Level Chicago Center
10:17AM 41.2597 -91.9961 266° West 453 521 43,000  Level Chicago Center
10:18AM 41.2508 -92.1603 266° West 452 520 43,000  Level Chicago Center
10:19AM 41.2419 -92.3236 266° West 449 517 43,000  Level Chicago Center
10:20AM 41.2336 -92.4864 266° West 452 520 43,000  Level Chicago Center
10:21AM 41.2244 -92.6486 266° West 449 517 43,000  Level Chicago Center
10:22AM 41.2136 -92.8483 266° West 454 522 43,000  Level Chicago Center
10:23AM 41.2047 -93.0125 266° West 452 520 43,000  Level Chicago Center
10:24AM 41.1944 -93.1761 265° West 450 518 43,000  Level Chicago Center
10:25AM 41.1850 -93.3392 266° West 449 517 43,000  Level Chicago Center
10:26AM 41.1742 -93.5028 265° West 450 518 43,000  Level Chicago Center
10:28AM 41.1622 -93.6997 265° West 450 518 43,000  Level Chicago Center
10:29AM 41.1511 -93.8639 265° West 452 520 43,000  Level Chicago Center
10:30AM 41.1414 -94.0292 266° West 453 521 43,000  Level Chicago Center
10:31AM 41.1292 -94.1936 264° West 452 520 43,000  Level Chicago Center
10:32AM 41.1181 -94.3578 265° West 451 519 43,000  Level Chicago Center
10:33AM 41.1053 -94.5225 264° West 452 520 43,000  Level Chicago Center
10:34AM 41.0897 -94.7492 265° West 452 520 43,000  Level Minneapolis Center
10:35AM 41.0775 -94.9158 264° West 452 520 43,000  Level Minneapolis Center
10:36AM 41.0628 -95.1144 264° West 452 520 43,000  Level Minneapolis Center
10:37AM 41.0500 -95.2800 264° West 452 520 43,000  Level Minneapolis Center
10:38AM 41.0350 -95.4450 263° West 452 520 43,000  Level Minneapolis Center
10:39AM 41.0219 -95.6108 264° West 452 520 43,000  Level Minneapolis Center
10:40AM 41.0086 -95.7769 264° West 451 519 43,000  Level Minneapolis Center
10:41AM 40.9931 -95.9439 263° West 451 519 43,000  Level Minneapolis Center
10:42AM 40.9797 -96.1100 264° West 451 519 43,000  Level Minneapolis Center
10:43AM 40.9647 -96.2772 263° West 451 519 43,000  Level Minneapolis Center
10:45AM 40.9344 -96.6094 263° West 451 519 43,000  Level Minneapolis Center
10:46AM 40.9164 -96.8083 263° West 452 520 43,000  Level Minneapolis Center
10:47AM 40.9000 -96.9744 263° West 452 520 43,000  Level Minneapolis Center
10:48AM 40.8847 -97.1406 263° West 453 521 43,000  Level Minneapolis Center
10:49AM 40.8678 -97.3075 262° West 454 522 43,000  Level Minneapolis Center
10:50AM 40.8511 -97.4647 262° West 455 524 43,000  Level Minneapolis Center
10:51AM 40.8367 -97.6325 264° West 456 525 43,000  Level Minneapolis Center
10:53AM 40.8153 -97.8328 262° West 456 525 43,000  Level Minneapolis Center
10:54AM 40.7972 -98.0011 262° West 458 527 43,000  Level Minneapolis Center
10:55AM 40.7792 -98.1697 262° West 459 528 43,000  Level Minneapolis Center
10:56AM 40.7622 -98.3406 263° West 463 533 43,000  Level Minneapolis Center
10:57AM 40.7439 -98.5106 262° West 463 533 43,000  Level Minneapolis Center
10:58AM 40.7242 -98.6819 261° West 464 534 43,000  Level Minneapolis Center
10:59AM 40.7050 -98.8533 262° West 464 534 43,000  Level Minneapolis Center
11:00AM 40.6858 -99.0256 262° West 466 536 43,000  Level Minneapolis Center
11:00AM 40.6739 -99.1283 261° West 467 537 43,000  Level Denver Center
11:01AM 40.6539 -99.2986 261° West 467 537 43,000  Level Denver Center
11:02AM 40.6333 -99.4708 261° West 470 541 43,000  Level Denver Center
11:03AM 40.6100 -99.6772 262° West 472 543 43,000  Level Denver Center
11:04AM 40.5886 -99.8500 261° West 474 545 43,000  Level Denver Center
11:06AM 40.5706 -100.0067 261° West 475 547 43,000  Level Denver Center
11:07AM 40.5467 -100.1983 261° West 475 547 43,000  Level Denver Center
11:08AM 40.5253 -100.3619 260° West 475 547 43,000  Level Denver Center
11:09AM 40.5014 -100.5536 261° West 474 545 43,000  Level Denver Center
11:10AM 40.4803 -100.7189 261° West 474 545 43,000  Level Denver Center
11:11AM 40.4553 -100.9111 260° West 474 545 43,000  Level Denver Center
11:12AM 40.4350 -101.0772 261° West 475 547 43,000  Level Denver Center
11:13AM 40.4153 -101.2417 261° West 475 547 43,000  Level Denver Center
11:14AM 40.3911 -101.4317 261° West 474 545 43,000  Level Denver Center
11:15AM 40.3689 -101.5939 260° West 473 544 43,000  Level Denver Center
11:16AM 40.3447 -101.7842 261° West 473 544 43,000  Level Denver Center
11:17AM 40.3236 -101.9464 260° West 473 544 43,000  Level Denver Center
11:18AM 40.2989 -102.1339 260° West 471 542 43,000  Level Denver Center
11:19AM 40.2769 -102.2950 260° West 470 541 43,000  Level Denver Center
11:20AM 40.2531 -102.4819 261° West 469 540 43,000  Level Denver Center
11:21AM 40.2303 -102.6414 259° West 469 540 43,000  Level Denver Center
11:22AM 40.2067 -102.8092 260° West 468 539 43,000  Level Denver Center
11:23AM 40.1833 -102.9750 260° West 468 539 43,000  Level Denver Center
11:24AM 40.1550 -103.1742 260° West 468 539 43,000 -240 Level Denver Center
11:25AM 40.1422 -103.3400 264° West 462 532 42,600 -900 Descending Denver Center
11:26AM 40.1311 -103.5092 265° West 464 534 41,200 -1,380 Descending Denver Center
11:27AM 40.1197 -103.6764 265° West 466 536 39,800 -1,260 Descending Denver Center
11:28AM 40.1072 -103.8419 264° West 461 531 38,600 -900 Descending Denver Center
11:29AM 40.0939 -104.0106 264° West 467 537 38,000 -1,080 Descending Denver Center
11:30AM 40.0797 -104.2117 265° West 467 537 36,400 -1,500 Descending Denver Center
11:31AM 40.0653 -104.3861 264° West 482 555 34,900 -1,440 Descending Denver Center
11:32AM 40.0519 -104.5592 264° West 486 559 33,400 -1,500 Descending Denver Center
11:33AM 40.0397 -104.7197 264° West 458 527 31,900 -1,620 Descending Denver Center
11:34AM 40.0336 -104.9089 268° West 444 511 30,100 -1,440 Descending Denver Center
11:35AM 40.0306 -105.0722 269° West 452 520 28,900 -960 Descending Denver Center
11:37AM 40.0286 -105.2364 269° West 454 522 28,200 -600 Descending Denver Center
11:38AM 40.0256 -105.3914 269° West 437 503 27,700 -540 Descending Denver Center
11:39AM 40.0225 -105.5447 269° West 430 495 27,200 -1,440 Descending Denver Center
11:40AM 40.0189 -105.7247 269° West 419 482 24,800 -2,400 Descending Denver Center
11:41AM 40.0161 -105.8706 269° West 405 466 22,300 -2,460 Descending Denver Center
11:42AM 40.0125 -106.0067 268° West 382 440 19,800 -2,460 Descending Denver Center
11:43AM 40.0092 -106.1375 268° West 368 423 17,300 -2,280 Descending Denver Center
11:44AM 40.0072 -106.2742 269° West 357 411 15,100 -1,620 Descending Denver Center
11:45AM 40.0042 -106.3878 268° West 339 390 14,100 -600 Descending Denver Center
11:46AM 39.9600 -106.4603 232° Southwest 310 357 13,900 -180 Descending Denver Center
11:47AM 39.8850 -106.4914 198° South 293 337 13,800 -60 Descending Denver Center
11:48AM 39.8192 -106.5189 198° South 269 310 13,800 -240 Level Denver Center
11:49AM 39.7628 -106.5439 199° South 226 260 13,400 -480 Descending Denver Center
11:50AM 39.7003 -106.5747 201° Southwest 214 246 12,800 -720 Descending Denver Center
11:51AM 39.6831 -106.6314 248° West 175 201 11,900 -1,020 Descending Denver Center
11:52AM 39.6758 -106.6953 262° West 174 200 10,700 -1,260 Descending Denver Center
11:53AM 39.6656 -106.7642 259° West 187 215 9,400 -1,320 Descending Denver Center
11:54AM 39.6531 -106.8331 257° West 174 200 8,000 -1,200 Descending Denver Center
11:55AM 39.6456 -106.8833 259° West 154 177 7,000 -1,020 Descending Denver Center